createdAt,value
2023-08-08T00:00:28.281Z,0.00
2023-08-08T00:01:28.308Z,0.00
2023-08-08T00:02:28.248Z,0.00
2023-08-08T00:03:28.279Z,0.00
2023-08-08T00:04:28.218Z,0.00
2023-08-08T00:05:28.220Z,0.00
2023-08-08T00:06:28.221Z,0.00
2023-08-08T00:07:28.188Z,0.00
2023-08-08T00:08:28.188Z,0.00
2023-08-08T00:09:28.174Z,0.00
2023-08-08T00:10:28.164Z,0.00
2023-08-08T00:11:28.181Z,0.00
2023-08-08T00:12:28.163Z,0.00
2023-08-08T00:13:28.139Z,0.00
2023-08-08T00:14:28.128Z,0.00
2023-08-08T00:15:28.234Z,0.00
2023-08-08T00:16:28.200Z,0.00
2023-08-08T00:17:28.125Z,0.00
2023-08-08T00:18:28.107Z,0.00
2023-08-08T00:19:28.054Z,0.00
2023-08-08T00:20:28.070Z,0.00
2023-08-08T00:21:28.037Z,0.00
2023-08-08T00:22:28.046Z,0.00
2023-08-08T00:23:28.030Z,0.00
2023-08-08T00:24:28.033Z,0.00
2023-08-08T00:25:27.993Z,0.00
2023-08-08T00:26:27.991Z,0.00
2023-08-08T00:27:28.015Z,0.00
2023-08-08T00:28:27.980Z,0.00
2023-08-08T00:29:27.950Z,0.00
2023-08-08T00:30:27.961Z,0.00
2023-08-08T00:31:28.013Z,0.00
2023-08-08T00:32:27.989Z,0.00
2023-08-08T00:33:27.927Z,0.00
2023-08-08T00:34:27.955Z,0.00
2023-08-08T00:35:27.893Z,0.00
2023-08-08T00:36:27.910Z,0.00
2023-08-08T00:37:27.885Z,0.00
2023-08-08T00:38:27.990Z,0.00
2023-08-08T00:39:27.880Z,0.00
2023-08-08T00:40:27.872Z,0.00
2023-08-08T00:41:27.832Z,0.00
2023-08-08T00:42:27.822Z,0.00
2023-08-08T00:43:27.820Z,0.00
2023-08-08T00:44:27.798Z,0.00
2023-08-08T00:45:27.810Z,0.00
2023-08-08T00:46:27.850Z,0.00
2023-08-08T00:47:27.837Z,0.00
2023-08-08T00:48:27.877Z,0.00
2023-08-08T00:49:27.772Z,0.00
2023-08-08T00:50:27.745Z,0.00
2023-08-08T00:51:27.760Z,0.00
2023-08-08T00:52:27.744Z,0.00
2023-08-08T00:53:27.729Z,0.00
2023-08-08T00:54:27.697Z,0.00
2023-08-08T00:55:27.705Z,0.00
2023-08-08T00:56:27.701Z,0.00
2023-08-08T00:57:27.701Z,0.00
2023-08-08T00:58:27.650Z,0.00
2023-08-08T00:59:27.645Z,0.00
2023-08-08T01:00:27.667Z,0.00
2023-08-08T01:01:27.653Z,0.00
2023-08-08T01:02:27.704Z,0.00
2023-08-08T01:03:27.627Z,0.00
2023-08-08T01:04:27.709Z,0.00
2023-08-08T01:05:27.585Z,0.00
2023-08-08T01:06:27.580Z,0.00
2023-08-08T01:07:27.568Z,0.00
2023-08-08T01:08:27.546Z,0.00
2023-08-08T01:09:29.734Z,0.00
2023-08-08T01:10:27.612Z,0.00
2023-08-08T01:11:27.523Z,0.00
2023-08-08T01:12:27.521Z,0.00
2023-08-08T01:13:27.518Z,0.00
2023-08-08T01:14:27.504Z,0.00
2023-08-08T01:15:27.476Z,0.00
2023-08-08T01:16:27.544Z,0.00
2023-08-08T01:17:27.581Z,0.00
2023-08-08T01:18:27.446Z,0.00
2023-08-08T01:19:27.451Z,0.00
2023-08-08T01:20:27.474Z,0.00
2023-08-08T01:21:27.411Z,0.00
2023-08-08T01:22:27.430Z,0.00
2023-08-08T01:23:27.398Z,0.00
2023-08-08T01:24:27.377Z,0.00
2023-08-08T01:25:27.372Z,0.00
2023-08-08T01:26:27.362Z,0.00
2023-08-08T01:27:27.338Z,0.00
2023-08-08T01:28:27.332Z,0.00
2023-08-08T01:29:27.336Z,0.00
2023-08-08T01:30:27.445Z,0.00
2023-08-08T01:31:27.334Z,0.00
2023-08-08T01:32:27.343Z,0.00
2023-08-08T01:33:27.293Z,0.00
2023-08-08T01:34:27.298Z,0.00
2023-08-08T01:35:27.260Z,0.00
2023-08-08T01:36:27.289Z,0.00
2023-08-08T01:37:27.236Z,0.00
2023-08-08T01:38:27.220Z,0.00
2023-08-08T01:39:27.256Z,0.00
2023-08-08T01:40:27.197Z,0.00
2023-08-08T01:41:27.199Z,0.00
2023-08-08T01:42:27.201Z,0.00
2023-08-08T01:43:27.169Z,0.00
2023-08-08T01:44:27.157Z,0.00
2023-08-08T01:45:27.167Z,0.00
2023-08-08T01:46:27.256Z,0.00
2023-08-08T01:47:27.183Z,0.00
2023-08-08T01:48:27.135Z,0.00
2023-08-08T01:49:27.110Z,0.00
2023-08-08T01:50:27.091Z,0.00
2023-08-08T01:51:27.574Z,0.00
2023-08-08T01:52:27.087Z,0.00
2023-08-08T01:53:27.065Z,0.00
2023-08-08T01:54:27.071Z,0.00
2023-08-08T01:55:27.044Z,0.00
2023-08-08T01:56:27.053Z,0.00
2023-08-08T01:57:27.029Z,0.00
2023-08-08T01:58:27.019Z,0.00
2023-08-08T01:59:27.002Z,0.00
2023-08-08T02:00:26.980Z,0.00
2023-08-08T02:01:27.022Z,0.00
2023-08-08T02:02:27.083Z,0.00
2023-08-08T02:03:27.034Z,0.00
2023-08-08T02:04:26.982Z,0.00
2023-08-08T02:05:26.950Z,0.00
2023-08-08T02:06:26.917Z,0.00
2023-08-08T02:07:26.921Z,0.00
2023-08-08T02:08:26.941Z,0.00
2023-08-08T02:09:26.904Z,0.00
2023-08-08T02:10:26.886Z,0.00
2023-08-08T02:11:26.889Z,0.00
2023-08-08T02:12:26.867Z,0.00
2023-08-08T02:13:26.838Z,0.00
2023-08-08T02:14:26.828Z,0.00
2023-08-08T02:15:26.842Z,0.00
2023-08-08T02:16:26.848Z,0.00
2023-08-08T02:17:26.859Z,0.00
2023-08-08T02:18:26.814Z,0.00
2023-08-08T02:19:26.783Z,0.00
2023-08-08T02:20:26.780Z,0.00
2023-08-08T02:21:26.758Z,0.00
2023-08-08T02:22:26.767Z,0.00
2023-08-08T02:23:26.739Z,0.00
2023-08-08T02:24:26.755Z,0.00
2023-08-08T02:25:26.724Z,0.00
2023-08-08T02:26:26.704Z,0.00
2023-08-08T02:27:26.696Z,0.00
2023-08-08T02:28:27.542Z,0.00
2023-08-08T02:29:26.676Z,0.00
2023-08-08T02:30:26.684Z,0.00
2023-08-08T02:31:26.673Z,0.00
2023-08-08T02:32:26.652Z,0.00
2023-08-08T02:33:26.631Z,0.00
2023-08-08T02:34:26.618Z,0.00
2023-08-08T02:35:26.610Z,0.00
2023-08-08T02:36:26.607Z,0.00
2023-08-08T02:37:26.578Z,0.00
2023-08-08T02:38:26.565Z,0.00
2023-08-08T02:39:26.566Z,0.00
2023-08-08T02:40:26.578Z,0.00
2023-08-08T02:41:26.552Z,0.00
2023-08-08T02:42:26.607Z,0.00
2023-08-08T02:43:26.524Z,0.00
2023-08-08T02:44:26.542Z,0.00
2023-08-08T02:45:26.491Z,0.00
2023-08-08T02:46:26.538Z,0.00
2023-08-08T02:47:26.499Z,0.00
2023-08-08T02:48:26.476Z,0.00
2023-08-08T02:49:26.452Z,0.00
2023-08-08T02:50:26.456Z,0.00
2023-08-08T02:51:26.432Z,0.00
2023-08-08T02:52:26.426Z,0.00
2023-08-08T02:53:26.410Z,0.00
2023-08-08T02:54:26.397Z,0.00
2023-08-08T02:55:26.386Z,0.00
2023-08-08T02:56:26.387Z,0.00
2023-08-08T02:57:26.356Z,0.00
2023-08-08T02:58:26.355Z,0.00
2023-08-08T02:59:26.363Z,0.00
2023-08-08T03:00:26.326Z,0.00
2023-08-08T03:01:26.361Z,0.00
2023-08-08T03:02:26.366Z,0.00
2023-08-08T03:03:26.312Z,0.00
2023-08-08T03:04:26.304Z,0.00
2023-08-08T03:05:26.343Z,0.00
2023-08-08T03:06:26.278Z,0.00
2023-08-08T03:07:26.266Z,0.00
2023-08-08T03:08:26.248Z,0.00
2023-08-08T03:09:26.234Z,0.00
2023-08-08T03:10:26.228Z,0.00
2023-08-08T03:11:26.215Z,0.00
2023-08-08T03:12:26.312Z,0.00
2023-08-08T03:13:26.205Z,0.00
2023-08-08T03:14:26.183Z,0.00
2023-08-08T03:15:26.186Z,0.00
2023-08-08T03:16:26.227Z,0.00
2023-08-08T03:17:26.185Z,0.00
2023-08-08T03:18:26.130Z,0.00
2023-08-08T03:19:26.139Z,0.00
2023-08-08T03:20:26.214Z,0.00
2023-08-08T03:21:26.099Z,0.00
2023-08-08T03:22:26.135Z,0.00
2023-08-08T03:23:26.079Z,0.00
2023-08-08T03:24:26.083Z,0.00
2023-08-08T03:25:26.075Z,0.00
2023-08-08T03:26:26.046Z,0.00
2023-08-08T03:27:26.044Z,0.00
2023-08-08T03:28:26.041Z,0.00
2023-08-08T03:29:26.020Z,0.00
2023-08-08T03:30:26.024Z,0.00
2023-08-08T03:31:25.995Z,0.00
2023-08-08T03:32:26.010Z,0.00
2023-08-08T03:33:25.974Z,0.00
2023-08-08T03:34:26.019Z,0.00
2023-08-08T03:35:25.957Z,0.00
2023-08-08T03:36:25.955Z,0.00
2023-08-08T03:37:25.949Z,0.00
2023-08-08T03:38:25.914Z,0.00
2023-08-08T03:39:25.948Z,0.00
2023-08-08T03:40:25.895Z,0.00
2023-08-08T03:41:25.905Z,0.00
2023-08-08T03:42:26.053Z,0.00
2023-08-08T03:43:25.869Z,0.00
2023-08-08T03:44:25.883Z,0.00
2023-08-08T03:45:25.848Z,0.00
2023-08-08T03:46:25.865Z,0.00
2023-08-08T03:47:25.877Z,0.00
2023-08-08T03:48:25.803Z,4.00
2023-08-08T03:49:25.835Z,0.00
2023-08-08T03:50:25.809Z,0.00
2023-08-08T03:51:25.800Z,0.00
2023-08-08T03:52:25.770Z,4.00
2023-08-08T03:53:25.784Z,4.00
2023-08-08T03:54:25.743Z,0.00
2023-08-08T03:55:25.740Z,4.00
2023-08-08T03:56:25.739Z,4.00
2023-08-08T03:57:25.732Z,0.00
2023-08-08T03:58:25.698Z,4.00
2023-08-08T03:59:25.712Z,4.00
2023-08-08T04:00:25.705Z,4.00
2023-08-08T04:01:25.805Z,4.00
2023-08-08T04:02:25.688Z,4.00
2023-08-08T04:03:25.693Z,4.00
2023-08-08T04:04:25.652Z,8.00
2023-08-08T04:05:25.630Z,8.00
2023-08-08T04:06:25.613Z,8.00
2023-08-08T04:07:25.606Z,8.00
2023-08-08T04:08:25.603Z,8.00
2023-08-08T04:09:25.604Z,12.00
2023-08-08T04:10:25.578Z,8.00
2023-08-08T04:11:25.583Z,8.00
2023-08-08T04:12:25.558Z,8.00
2023-08-08T04:13:25.546Z,16.00
2023-08-08T04:14:25.539Z,16.00
2023-08-08T04:15:25.544Z,16.00
2023-08-08T04:16:27.069Z,16.00
2023-08-08T04:17:25.518Z,16.00
2023-08-08T04:18:25.491Z,20.00
2023-08-08T04:19:25.547Z,20.00
2023-08-08T04:20:25.468Z,20.00
2023-08-08T04:21:25.456Z,24.00
2023-08-08T04:22:25.462Z,24.00
2023-08-08T04:23:25.472Z,24.00
2023-08-08T04:24:25.420Z,24.00
2023-08-08T04:25:25.426Z,28.00
2023-08-08T04:26:25.398Z,28.00
2023-08-08T04:27:25.390Z,32.00
2023-08-08T04:28:25.388Z,32.00
2023-08-08T04:29:25.367Z,36.00
2023-08-08T04:30:25.378Z,40.00
2023-08-08T04:31:25.446Z,36.00
2023-08-08T04:32:25.391Z,40.00
2023-08-08T04:33:25.325Z,44.00
2023-08-08T04:34:25.330Z,44.00
2023-08-08T04:35:25.331Z,48.00
2023-08-08T04:36:25.296Z,48.00
2023-08-08T04:37:25.278Z,52.00
2023-08-08T04:38:25.266Z,56.00
2023-08-08T04:39:25.290Z,56.00
2023-08-08T04:40:25.383Z,60.00
2023-08-08T04:41:25.240Z,64.00
2023-08-08T04:42:25.230Z,64.00
2023-08-08T04:43:25.221Z,64.00
2023-08-08T04:44:25.209Z,68.00
2023-08-08T04:45:25.222Z,72.00
2023-08-08T04:46:25.288Z,76.00
2023-08-08T04:47:25.244Z,80.00
2023-08-08T04:48:25.180Z,84.00
2023-08-08T04:49:25.153Z,84.00
2023-08-08T04:50:25.165Z,84.00
2023-08-08T04:51:25.126Z,84.00
2023-08-08T04:52:25.106Z,88.00
2023-08-08T04:53:25.105Z,92.00
2023-08-08T04:54:25.104Z,96.00
2023-08-08T04:55:25.095Z,96.00
2023-08-08T04:56:25.083Z,100.00
2023-08-08T04:57:25.060Z,104.00
2023-08-08T04:58:25.052Z,108.00
2023-08-08T04:59:25.045Z,108.00
2023-08-08T05:00:25.034Z,112.00
2023-08-08T05:01:25.052Z,116.00
2023-08-08T05:02:25.010Z,116.00
2023-08-08T05:03:25.082Z,120.00
2023-08-08T05:04:25.010Z,120.00
2023-08-08T05:05:25.009Z,116.00
2023-08-08T05:06:24.968Z,116.00
2023-08-08T05:07:24.952Z,120.00
2023-08-08T05:08:24.981Z,124.00
2023-08-08T05:09:24.955Z,124.00
2023-08-08T05:10:24.948Z,128.00
2023-08-08T05:11:24.918Z,128.00
2023-08-08T05:12:26.203Z,132.00
2023-08-08T05:13:24.900Z,136.00
2023-08-08T05:14:24.893Z,144.00
2023-08-08T05:15:24.893Z,144.00
2023-08-08T05:16:24.879Z,148.00
2023-08-08T05:17:24.929Z,148.00
2023-08-08T05:18:24.856Z,152.00
2023-08-08T05:19:24.822Z,156.00
2023-08-08T05:20:24.851Z,160.00
2023-08-08T05:21:24.806Z,160.00
2023-08-08T05:22:24.799Z,164.00
2023-08-08T05:23:24.787Z,168.00
2023-08-08T05:24:24.783Z,168.00
2023-08-08T05:25:24.789Z,172.00
2023-08-08T05:26:24.751Z,176.00
2023-08-08T05:27:24.761Z,180.00
2023-08-08T05:28:24.732Z,184.00
2023-08-08T05:29:24.719Z,188.00
2023-08-08T05:30:24.705Z,192.00
2023-08-08T05:31:24.692Z,192.00
2023-08-08T05:32:24.704Z,200.00
2023-08-08T05:33:24.669Z,200.00
2023-08-08T05:34:24.663Z,200.00
2023-08-08T05:35:24.669Z,204.00
2023-08-08T05:36:24.768Z,212.00
2023-08-08T05:37:24.643Z,216.00
2023-08-08T05:38:24.640Z,224.00
2023-08-08T05:39:24.604Z,232.00
2023-08-08T05:40:24.600Z,240.00
2023-08-08T05:41:24.588Z,248.00
2023-08-08T05:42:24.603Z,256.00
2023-08-08T05:43:24.558Z,264.00
2023-08-08T05:44:24.565Z,276.00
2023-08-08T05:45:24.543Z,280.00
2023-08-08T05:46:24.565Z,288.00
2023-08-08T05:47:24.541Z,304.00
2023-08-08T05:48:24.513Z,312.00
2023-08-08T05:49:24.508Z,328.00
2023-08-08T05:50:24.506Z,340.00
2023-08-08T05:51:24.493Z,352.00
2023-08-08T05:52:24.480Z,364.00
2023-08-08T05:53:24.454Z,376.00
2023-08-08T05:54:24.475Z,388.00
2023-08-08T05:55:24.439Z,400.00
2023-08-08T05:56:24.451Z,408.00
2023-08-08T05:57:24.416Z,428.00
2023-08-08T05:58:24.403Z,444.00
2023-08-08T05:59:24.394Z,460.00
2023-08-08T06:00:24.421Z,472.00
2023-08-08T06:01:24.418Z,484.00
2023-08-08T06:02:24.364Z,504.00
2023-08-08T06:03:24.369Z,516.00
2023-08-08T06:04:24.342Z,532.00
2023-08-08T06:05:24.352Z,548.00
2023-08-08T06:06:24.321Z,540.00
2023-08-08T06:07:24.310Z,580.00
2023-08-08T06:08:24.320Z,596.00
2023-08-08T06:09:24.315Z,608.00
2023-08-08T06:10:24.276Z,616.00
2023-08-08T06:11:24.260Z,632.00
2023-08-08T06:12:24.264Z,644.00
2023-08-08T06:13:24.263Z,668.00
2023-08-08T06:14:24.240Z,676.00
2023-08-08T06:15:24.223Z,700.00
2023-08-08T06:16:24.280Z,720.00
2023-08-08T06:17:24.223Z,740.00
2023-08-08T06:18:24.194Z,764.00
2023-08-08T06:19:24.186Z,788.00
2023-08-08T06:20:24.202Z,808.00
2023-08-08T06:21:24.152Z,836.00
2023-08-08T06:22:24.444Z,852.00
2023-08-08T06:23:24.147Z,888.00
2023-08-08T06:24:24.140Z,884.00
2023-08-08T06:25:24.106Z,896.00
2023-08-08T06:26:24.104Z,940.00
2023-08-08T06:27:24.136Z,968.00
2023-08-08T06:28:24.073Z,996.00
2023-08-08T06:29:24.069Z,920.00
2023-08-08T06:30:24.061Z,740.00
2023-08-08T06:31:24.043Z,776.00
2023-08-08T06:32:24.046Z,504.00
2023-08-08T06:33:24.037Z,676.00
2023-08-08T06:34:24.008Z,540.00
2023-08-08T06:35:24.019Z,652.00
2023-08-08T06:36:23.986Z,480.00
2023-08-08T06:37:23.985Z,444.00
2023-08-08T06:38:24.002Z,448.00
2023-08-08T06:39:23.949Z,444.00
2023-08-08T06:40:23.969Z,448.00
2023-08-08T06:41:23.930Z,476.00
2023-08-08T06:42:23.929Z,464.00
2023-08-08T06:43:23.922Z,416.00
2023-08-08T06:44:23.920Z,400.00
2023-08-08T06:45:23.895Z,424.00
2023-08-08T06:46:23.941Z,396.00
2023-08-08T06:47:23.867Z,372.00
2023-08-08T06:48:23.872Z,376.00
2023-08-08T06:49:23.858Z,400.00
2023-08-08T06:50:23.856Z,472.00
2023-08-08T06:51:23.841Z,544.00
2023-08-08T06:52:23.819Z,560.00
2023-08-08T06:53:23.802Z,564.00
2023-08-08T06:54:23.799Z,408.00
2023-08-08T06:55:23.790Z,516.00
2023-08-08T06:56:23.810Z,572.00
2023-08-08T06:57:23.768Z,840.00
2023-08-08T06:58:23.753Z,560.00
2023-08-08T06:59:23.736Z,580.00
2023-08-08T07:00:23.759Z,712.00
2023-08-08T07:01:23.783Z,1460.00
2023-08-08T07:02:23.748Z,1572.00
2023-08-08T07:03:23.777Z,1608.00
2023-08-08T07:04:23.703Z,1640.00
2023-08-08T07:05:23.688Z,1664.00
2023-08-08T07:06:23.675Z,1652.00
2023-08-08T07:07:23.684Z,1620.00
2023-08-08T07:08:23.676Z,444.00
2023-08-08T07:09:23.643Z,440.00
2023-08-08T07:10:23.636Z,488.00
2023-08-08T07:11:23.634Z,368.00
2023-08-08T07:12:23.615Z,444.00
2023-08-08T07:13:23.661Z,376.00
2023-08-08T07:14:23.591Z,360.00
2023-08-08T07:15:23.582Z,384.00
2023-08-08T07:16:23.608Z,1640.00
2023-08-08T07:17:23.563Z,888.00
2023-08-08T07:18:23.554Z,1768.00
2023-08-08T07:19:23.522Z,1864.00
2023-08-08T07:20:23.539Z,1844.00
2023-08-08T07:21:23.504Z,1852.00
2023-08-08T07:22:23.527Z,1464.00
2023-08-08T07:23:23.490Z,1816.00
2023-08-08T07:24:23.491Z,1932.00
2023-08-08T07:25:23.487Z,1988.00
2023-08-08T07:26:23.453Z,2044.00
2023-08-08T07:27:23.463Z,2028.00
2023-08-08T07:28:23.496Z,2048.00
2023-08-08T07:29:23.437Z,2072.00
2023-08-08T07:30:23.434Z,2080.00
2023-08-08T07:31:23.489Z,2080.00
2023-08-08T07:32:23.466Z,2068.00
2023-08-08T07:33:23.387Z,2076.00
2023-08-08T07:34:23.398Z,2068.00
2023-08-08T07:35:23.350Z,2060.00
2023-08-08T07:36:23.348Z,2084.00
2023-08-08T07:37:23.335Z,2088.00
2023-08-08T07:38:23.349Z,2112.00
2023-08-08T07:39:23.309Z,2128.00
2023-08-08T07:40:23.303Z,2124.00
2023-08-08T07:41:23.282Z,2160.00
2023-08-08T07:42:23.280Z,2196.00
2023-08-08T07:43:23.283Z,1212.00
2023-08-08T07:44:23.387Z,2180.00
2023-08-08T07:45:23.271Z,2200.00
2023-08-08T07:46:23.292Z,2200.00
2023-08-08T07:47:23.229Z,2232.00
2023-08-08T07:48:23.213Z,2228.00
2023-08-08T07:49:23.228Z,2116.00
2023-08-08T07:50:23.229Z,1728.00
2023-08-08T07:51:23.176Z,1948.00
2023-08-08T07:52:23.190Z,2116.00
2023-08-08T07:53:23.167Z,2220.00
2023-08-08T07:54:23.155Z,2232.00
2023-08-08T07:55:23.146Z,2248.00
2023-08-08T07:56:23.141Z,2244.00
2023-08-08T07:57:23.138Z,2240.00
2023-08-08T07:58:23.139Z,2248.00
2023-08-08T07:59:23.100Z,2212.00
2023-08-08T08:00:23.126Z,1996.00
2023-08-08T08:01:23.138Z,2160.00
2023-08-08T08:02:23.160Z,1364.00
2023-08-08T08:03:23.174Z,1536.00
2023-08-08T08:04:23.052Z,1548.00
2023-08-08T08:05:23.038Z,1504.00
2023-08-08T08:06:23.027Z,1424.00
2023-08-08T08:07:23.023Z,1240.00
2023-08-08T08:08:23.011Z,1760.00
2023-08-08T08:09:22.988Z,2140.00
2023-08-08T08:10:22.983Z,1528.00
2023-08-08T08:11:22.969Z,1460.00
2023-08-08T08:12:22.972Z,1544.00
2023-08-08T08:13:22.969Z,1464.00
2023-08-08T08:14:22.943Z,1336.00
2023-08-08T08:15:22.925Z,1508.00
2023-08-08T08:16:22.958Z,1508.00
2023-08-08T08:17:22.899Z,1692.00
2023-08-08T08:18:22.891Z,1884.00
2023-08-08T08:19:22.934Z,1872.00
2023-08-08T08:20:22.880Z,1804.00
2023-08-08T08:21:22.887Z,1892.00
2023-08-08T08:22:22.849Z,1828.00
2023-08-08T08:23:22.856Z,1232.00
2023-08-08T08:24:22.886Z,1088.00
2023-08-08T08:25:22.832Z,1060.00
2023-08-08T08:26:22.827Z,1044.00
2023-08-08T08:27:22.812Z,1208.00
2023-08-08T08:28:22.802Z,1156.00
2023-08-08T08:29:22.772Z,1920.00
2023-08-08T08:30:22.761Z,1928.00
2023-08-08T08:31:22.815Z,1912.00
2023-08-08T08:32:22.786Z,1892.00
2023-08-08T08:33:22.754Z,1900.00
2023-08-08T08:34:22.738Z,1332.00
2023-08-08T08:35:22.728Z,1752.00
2023-08-08T08:36:22.706Z,1640.00
2023-08-08T08:37:22.686Z,1736.00
2023-08-08T08:38:22.689Z,1720.00
2023-08-08T08:39:22.668Z,1768.00
2023-08-08T08:40:22.694Z,1748.00
2023-08-08T08:41:22.642Z,1732.00
2023-08-08T08:42:22.635Z,1684.00
2023-08-08T08:43:22.636Z,1136.00
2023-08-08T08:44:22.618Z,1748.00
2023-08-08T08:45:22.595Z,1512.00
2023-08-08T08:46:22.633Z,1420.00
2023-08-08T08:47:22.599Z,1324.00
2023-08-08T08:48:22.754Z,1360.00
2023-08-08T08:49:22.574Z,1124.00
2023-08-08T08:50:22.569Z,784.00
2023-08-08T08:51:22.538Z,1016.00
2023-08-08T08:52:22.534Z,1088.00
2023-08-08T08:53:22.532Z,824.00
2023-08-08T08:54:22.509Z,1168.00
2023-08-08T08:55:22.493Z,1180.00
2023-08-08T08:56:22.492Z,1100.00
2023-08-08T08:57:22.475Z,1472.00
2023-08-08T08:58:22.489Z,1348.00
2023-08-08T08:59:22.454Z,1480.00
2023-08-08T09:00:22.442Z,1220.00
2023-08-08T09:01:22.509Z,1560.00
2023-08-08T09:02:22.469Z,1200.00
2023-08-08T09:03:22.536Z,1568.00
2023-08-08T09:04:22.430Z,1564.00
2023-08-08T09:05:22.385Z,1588.00
2023-08-08T09:06:22.374Z,1572.00
2023-08-08T09:07:22.363Z,1628.00
2023-08-08T09:08:22.368Z,1592.00
2023-08-08T09:09:22.374Z,1644.00
2023-08-08T09:10:22.354Z,1532.00
2023-08-08T09:11:22.337Z,1592.00
2023-08-08T09:12:22.308Z,1372.00
2023-08-08T09:13:22.314Z,1608.00
2023-08-08T09:14:22.285Z,1504.00
2023-08-08T09:15:22.359Z,1368.00
2023-08-08T09:16:22.317Z,1204.00
2023-08-08T09:17:25.846Z,1420.00
2023-08-08T09:18:23.320Z,1616.00
2023-08-08T09:19:22.288Z,1640.00
2023-08-08T09:20:22.326Z,1344.00
2023-08-08T09:21:22.207Z,1216.00
2023-08-08T09:22:22.195Z,1248.00
2023-08-08T09:23:22.224Z,984.00
2023-08-08T09:24:22.176Z,944.00
2023-08-08T09:25:22.167Z,1004.00
2023-08-08T09:26:22.169Z,1112.00
2023-08-08T09:27:22.183Z,1168.00
2023-08-08T09:28:22.134Z,1224.00
2023-08-08T09:29:22.129Z,952.00
2023-08-08T09:30:22.237Z,1284.00
2023-08-08T09:31:22.163Z,1164.00
2023-08-08T09:32:22.153Z,1080.00
2023-08-08T09:33:22.107Z,1164.00
2023-08-08T09:34:22.101Z,1192.00
2023-08-08T09:35:22.066Z,1012.00
2023-08-08T09:36:22.100Z,1056.00
2023-08-08T09:37:22.065Z,1176.00
2023-08-08T09:38:22.052Z,1208.00
2023-08-08T09:39:22.068Z,1228.00
2023-08-08T09:40:22.048Z,944.00
2023-08-08T09:41:21.996Z,988.00
2023-08-08T09:42:21.985Z,1040.00
2023-08-08T09:43:21.976Z,1032.00
2023-08-08T09:44:21.965Z,1088.00
2023-08-08T09:45:21.970Z,1104.00
2023-08-08T09:46:22.008Z,1216.00
2023-08-08T09:47:23.144Z,1468.00
2023-08-08T09:48:22.038Z,1024.00
2023-08-08T09:49:21.916Z,984.00
2023-08-08T09:50:29.477Z,1112.00
2023-08-08T09:51:21.899Z,1212.00
2023-08-08T09:52:22.014Z,1184.00
2023-08-08T09:53:21.890Z,1432.00
2023-08-08T09:54:21.892Z,1256.00
2023-08-08T09:55:21.889Z,912.00
2023-08-08T09:56:21.849Z,1212.00
2023-08-08T09:57:21.841Z,848.00
2023-08-08T09:58:21.829Z,1216.00
2023-08-08T09:59:21.814Z,1296.00
2023-08-08T10:00:21.828Z,1108.00
2023-08-08T10:01:21.897Z,1124.00
2023-08-08T10:02:21.800Z,1168.00
2023-08-08T10:03:21.812Z,1068.00
2023-08-08T10:04:21.807Z,1304.00
2023-08-08T10:05:21.776Z,1740.00
2023-08-08T10:06:21.744Z,1892.00
2023-08-08T10:07:21.743Z,1796.00
2023-08-08T10:08:21.852Z,1512.00
2023-08-08T10:09:21.693Z,1364.00
2023-08-08T10:10:21.718Z,1324.00
2023-08-08T10:11:21.679Z,1808.00
2023-08-08T10:12:21.694Z,1472.00
2023-08-08T10:13:21.680Z,1376.00
2023-08-08T10:14:21.647Z,1180.00
2023-08-08T10:15:21.646Z,1156.00
2023-08-08T10:16:21.657Z,1244.00
2023-08-08T10:17:21.671Z,1112.00
2023-08-08T10:18:21.607Z,1080.00
2023-08-08T10:19:21.633Z,1028.00
2023-08-08T10:20:21.582Z,1028.00
2023-08-08T10:21:21.574Z,1020.00
2023-08-08T10:22:21.615Z,940.00
2023-08-08T10:23:21.554Z,764.00
2023-08-08T10:24:21.593Z,724.00
2023-08-08T10:25:21.533Z,756.00
2023-08-08T10:26:21.531Z,836.00
2023-08-08T10:27:21.517Z,1016.00
2023-08-08T10:28:26.730Z,992.00
2023-08-08T10:29:22.518Z,864.00
2023-08-08T10:30:21.476Z,1032.00
2023-08-08T10:31:21.497Z,1088.00
2023-08-08T10:32:21.448Z,1472.00
2023-08-08T10:33:21.456Z,1432.00
2023-08-08T10:34:21.472Z,1036.00
2023-08-08T10:35:21.420Z,816.00
2023-08-08T10:36:21.406Z,1208.00
2023-08-08T10:37:21.396Z,848.00
2023-08-08T10:38:21.383Z,860.00
2023-08-08T10:39:21.374Z,1412.00
2023-08-08T10:40:21.412Z,876.00
2023-08-08T10:41:21.363Z,832.00
2023-08-08T10:42:21.359Z,1088.00
2023-08-08T10:43:21.363Z,856.00
2023-08-08T10:44:21.318Z,884.00
2023-08-08T10:45:21.307Z,1292.00
2023-08-08T10:46:21.365Z,984.00
2023-08-08T10:47:21.287Z,1240.00
2023-08-08T10:48:21.313Z,1208.00
2023-08-08T10:49:21.269Z,1196.00
2023-08-08T10:50:21.252Z,1128.00
2023-08-08T10:51:21.279Z,880.00
2023-08-08T10:52:22.167Z,944.00
2023-08-08T10:53:21.219Z,852.00
2023-08-08T10:54:21.210Z,1316.00
2023-08-08T10:55:21.216Z,1152.00
2023-08-08T10:56:21.246Z,920.00
2023-08-08T10:57:21.176Z,920.00
2023-08-08T10:58:21.280Z,1008.00
2023-08-08T10:59:22.071Z,992.00
2023-08-08T11:00:21.146Z,912.00
2023-08-08T11:01:21.154Z,900.00
2023-08-08T11:02:21.165Z,972.00
2023-08-08T11:03:21.110Z,1004.00
2023-08-08T11:04:21.167Z,1252.00
2023-08-08T11:05:21.105Z,1312.00
2023-08-08T11:06:21.104Z,1312.00
2023-08-08T11:07:21.071Z,880.00
2023-08-08T11:08:21.057Z,812.00
2023-08-08T11:09:21.054Z,828.00
2023-08-08T11:10:21.040Z,928.00
2023-08-08T11:11:21.056Z,1008.00
2023-08-08T11:12:21.071Z,1292.00
2023-08-08T11:13:21.043Z,1196.00
2023-08-08T11:14:21.065Z,1172.00
2023-08-08T11:15:20.985Z,1280.00
2023-08-08T11:16:21.029Z,1124.00
2023-08-08T11:17:21.016Z,1852.00
2023-08-08T11:18:20.988Z,908.00
2023-08-08T11:19:20.941Z,832.00
2023-08-08T11:20:20.959Z,992.00
2023-08-08T11:21:20.925Z,904.00
2023-08-08T11:22:20.909Z,776.00
2023-08-08T11:23:20.893Z,816.00
2023-08-08T11:24:21.066Z,1272.00
2023-08-08T11:25:20.902Z,940.00
2023-08-08T11:26:20.863Z,908.00
2023-08-08T11:28:21.006Z,1120.00
2023-08-08T11:29:20.885Z,860.00
2023-08-08T11:30:20.810Z,692.00
2023-08-08T11:31:20.892Z,604.00
2023-08-08T11:32:20.802Z,572.00
2023-08-08T11:33:20.813Z,604.00
2023-08-08T11:34:20.877Z,660.00
2023-08-08T11:35:20.766Z,736.00
2023-08-08T11:36:20.756Z,796.00
2023-08-08T11:37:20.773Z,784.00
2023-08-08T11:38:21.539Z,712.00
2023-08-08T11:39:20.728Z,684.00
2023-08-08T11:40:20.711Z,728.00
2023-08-08T11:41:20.695Z,816.00
2023-08-08T11:42:20.688Z,860.00
2023-08-08T11:43:20.711Z,744.00
2023-08-08T11:44:20.789Z,668.00
2023-08-08T11:45:20.687Z,624.00
2023-08-08T11:46:20.668Z,632.00
2023-08-08T11:47:20.632Z,656.00
2023-08-08T11:48:20.618Z,624.00
2023-08-08T11:49:20.608Z,724.00
2023-08-08T11:50:20.635Z,544.00
2023-08-08T11:51:20.592Z,436.00
2023-08-08T11:52:20.636Z,352.00
2023-08-08T11:53:20.565Z,284.00
2023-08-08T11:54:20.565Z,228.00
2023-08-08T11:55:20.647Z,188.00
2023-08-08T11:56:20.545Z,164.00
2023-08-08T11:57:20.529Z,156.00
2023-08-08T11:58:20.510Z,152.00
2023-08-08T11:59:20.544Z,140.00
2023-08-08T12:00:20.512Z,128.00
2023-08-08T12:01:20.613Z,120.00
2023-08-08T12:02:20.490Z,124.00
2023-08-08T12:03:20.550Z,136.00
2023-08-08T12:04:20.456Z,140.00
2023-08-08T12:05:20.450Z,136.00
2023-08-08T12:06:20.448Z,132.00
2023-08-08T12:07:20.453Z,144.00
2023-08-08T12:08:20.487Z,164.00
2023-08-08T12:09:20.445Z,184.00
2023-08-08T12:10:20.480Z,220.00
2023-08-08T12:11:25.415Z,292.00
2023-08-08T12:12:21.365Z,420.00
2023-08-08T12:13:20.387Z,548.00
2023-08-08T12:14:20.349Z,600.00
2023-08-08T12:15:20.365Z,576.00
2023-08-08T12:16:20.358Z,540.00
2023-08-08T12:17:20.408Z,500.00
2023-08-08T12:18:20.350Z,472.00
2023-08-08T12:19:20.296Z,468.00
2023-08-08T12:20:20.353Z,520.00
2023-08-08T12:21:20.291Z,564.00
2023-08-08T12:22:20.255Z,568.00
2023-08-08T12:23:20.248Z,568.00
2023-08-08T12:24:20.270Z,576.00
2023-08-08T12:25:20.229Z,584.00
2023-08-08T12:26:20.236Z,564.00
2023-08-08T12:27:20.230Z,524.00
2023-08-08T12:28:20.188Z,560.00
2023-08-08T12:29:20.221Z,548.00
2023-08-08T12:30:20.163Z,584.00
2023-08-08T12:31:20.199Z,668.00
2023-08-08T12:32:20.188Z,716.00
2023-08-08T12:33:20.140Z,752.00
2023-08-08T12:34:20.124Z,768.00
2023-08-08T12:35:20.136Z,832.00
2023-08-08T12:36:20.123Z,1000.00
2023-08-08T12:37:20.133Z,1156.00
2023-08-08T12:38:20.104Z,1168.00
2023-08-08T12:39:20.111Z,860.00